createdAt,value
2019-06-26T00:01:50.822Z,22.54
2019-06-26T00:04:33.782Z,22.70
2019-06-26T00:07:06.993Z,22.58
2019-06-26T00:09:40.392Z,22.62
2019-06-26T00:12:15.271Z,22.62
2019-06-26T00:14:59.908Z,22.73
2019-06-26T00:17:33.222Z,22.56
2019-06-26T00:20:06.528Z,22.49
2019-06-26T00:22:40.272Z,22.40
2019-06-26T00:25:14.204Z,22.25
2019-06-26T00:27:47.440Z,22.19
2019-06-26T00:30:20.824Z,22.16
2019-06-26T00:33:03.652Z,22.31
2019-06-26T00:35:37.333Z,22.20
2019-06-26T00:38:10.956Z,22.21
2019-06-26T00:40:44.167Z,22.20
2019-06-26T00:43:41.480Z,22.39
2019-06-26T00:46:03.550Z,22.24
2019-06-26T00:48:36.888Z,22.22
2019-06-26T00:51:10.498Z,22.24
2019-06-26T00:53:43.843Z,22.09
2019-06-26T00:56:17.272Z,22.06
2019-06-26T00:58:52.621Z,22.02
2019-06-26T01:01:25.975Z,22.02
2019-06-26T01:04:13.772Z,22.24
2019-06-26T01:06:47.161Z,21.96
2019-06-26T01:09:20.421Z,22.09
2019-06-26T01:11:55.304Z,22.04
2019-06-26T01:14:38.222Z,22.12
2019-06-26T01:17:11.560Z,22.03
2019-06-26T01:19:44.802Z,21.88
2019-06-26T01:22:18.110Z,21.81
2019-06-26T01:24:52.889Z,21.79
2019-06-26T01:27:28.763Z,21.81
2019-06-26T01:30:02.078Z,21.89
2019-06-26T01:32:47.568Z,21.94
2019-06-26T01:35:20.877Z,21.74
2019-06-26T01:37:53.947Z,21.79
2019-06-26T01:40:40.308Z,21.83
2019-06-26T01:43:13.874Z,21.79
2019-06-26T01:45:50.472Z,21.79
2019-06-26T01:48:23.390Z,21.60
2019-06-26T01:50:57.447Z,21.52
2019-06-26T01:53:30.670Z,21.49
2019-06-26T01:56:03.627Z,21.48
2019-06-26T01:58:55.358Z,21.55
2019-06-26T02:01:49.088Z,21.54
2019-06-26T02:04:36.885Z,21.51
2019-06-26T02:07:28.191Z,21.51
2019-06-26T02:10:01.823Z,21.47
2019-06-26T02:12:36.196Z,21.55
2019-06-26T02:15:29.257Z,21.63
2019-06-26T02:18:02.825Z,21.41
2019-06-26T02:20:36.201Z,21.36
2019-06-26T02:23:10.814Z,20.42
2019-06-26T02:25:46.111Z,21.30
2019-06-26T02:28:20.943Z,21.23
2019-06-26T02:30:54.339Z,21.26
2019-06-26T02:33:39.436Z,21.40
2019-06-26T02:36:13.530Z,21.22
2019-06-26T02:38:59.348Z,21.40
2019-06-26T02:41:34.607Z,21.23
2019-06-26T02:44:09.494Z,21.27
2019-06-26T02:46:42.814Z,21.36
2019-06-26T02:49:35.303Z,21.45
2019-06-26T02:52:19.837Z,21.42
2019-06-26T02:55:05.261Z,21.35
2019-06-26T02:57:38.554Z,21.20
2019-06-26T04:08:16.522Z,21.90
2019-06-26T04:10:50.427Z,21.91
2019-06-26T04:13:34.229Z,22.04
2019-06-26T04:16:20.022Z,22.05
2019-06-26T04:18:53.783Z,22.03
2019-06-26T04:21:27.042Z,22.09
2019-06-26T04:24:00.771Z,22.13
2019-06-26T04:26:36.276Z,22.26
2019-06-26T04:29:09.643Z,22.42
2019-06-26T04:31:43.332Z,22.50
2019-06-26T04:34:17.434Z,22.69
2019-06-26T04:37:08.900Z,22.98
2019-06-26T04:39:42.581Z,22.93
2019-06-26T04:42:36.121Z,23.17
2019-06-26T04:45:10.809Z,23.07
2019-06-26T04:47:44.482Z,23.13
2019-06-26T04:50:36.226Z,23.31
2019-06-26T04:53:09.856Z,23.26
2019-06-26T04:55:43.326Z,23.27
2019-06-26T04:58:17.553Z,23.29
2019-06-26T05:01:07.033Z,23.42
2019-06-26T05:03:58.814Z,23.49
2019-06-26T05:06:50.194Z,23.57
2019-06-26T05:09:41.628Z,23.61
2019-06-26T05:12:25.089Z,23.68
2019-06-26T05:14:58.473Z,23.61
2019-06-26T05:17:35.152Z,23.69
2019-06-26T05:20:10.283Z,23.73
2019-06-26T05:22:46.893Z,23.77
2019-06-26T05:25:20.312Z,23.82
2019-06-26T05:27:53.988Z,23.83
2019-06-26T05:30:29.349Z,23.90
2019-06-26T05:33:14.102Z,24.10
2019-06-26T05:35:49.581Z,23.94
2019-06-26T05:38:23.271Z,23.99
2019-06-26T05:40:59.007Z,24.04
2019-06-26T05:43:34.291Z,24.10
2019-06-26T05:46:08.001Z,24.17
2019-06-26T05:48:41.343Z,24.33
2019-06-26T05:51:14.843Z,24.50
2019-06-26T05:53:54.300Z,24.55
2019-06-26T05:56:27.607Z,24.58
2019-06-26T05:59:10.630Z,24.77
2019-06-26T06:01:44.488Z,24.80
2019-06-26T06:04:17.852Z,24.86
2019-06-26T06:06:52.227Z,24.96
2019-06-26T06:09:43.613Z,25.14
2019-06-26T06:12:29.410Z,25.20
2019-06-26T06:15:19.387Z,25.29
2019-06-26T06:18:03.453Z,25.36
2019-06-26T06:20:41.546Z,25.32
2019-06-26T06:23:26.131Z,25.54
2019-06-26T06:25:59.833Z,25.56
2019-06-26T06:28:33.614Z,25.61
2019-06-26T06:31:07.180Z,25.78
2019-06-26T06:33:40.940Z,25.74
2019-06-26T06:36:14.650Z,25.69
2019-06-26T06:39:02.304Z,25.88
2019-06-26T06:41:37.414Z,25.82
2019-06-26T06:44:11.447Z,25.93
2019-06-26T06:47:03.891Z,26.04
2019-06-26T06:49:30.981Z,25.92
2019-06-26T06:52:04.274Z,25.95
2019-06-26T06:54:50.061Z,26.17
2019-06-26T06:57:23.899Z,26.21
2019-06-26T07:00:16.849Z,26.35
2019-06-26T07:03:07.318Z,26.45
2019-06-26T07:05:41.397Z,26.43
2019-06-26T07:08:14.723Z,26.47
2019-06-26T07:10:47.984Z,26.54
2019-06-26T07:13:21.877Z,26.61
2019-06-26T07:15:55.354Z,26.56
2019-06-26T07:18:29.107Z,26.56
2019-06-26T07:21:02.514Z,26.67
2019-06-26T07:23:36.543Z,26.71
2019-06-26T07:26:13.191Z,26.60
2019-06-26T07:28:45.489Z,26.88
2019-06-26T07:31:19.071Z,26.85
2019-06-26T07:33:55.402Z,26.83
2019-06-26T07:36:27.772Z,26.97
2019-06-26T07:39:20.582Z,27.10
2019-06-26T07:41:53.618Z,27.01
2019-06-26T07:44:27.559Z,27.03
2019-06-26T07:47:00.892Z,26.99
2019-06-26T07:49:34.609Z,27.06
2019-06-26T07:52:08.400Z,27.03
2019-06-26T07:54:41.625Z,26.88
2019-06-26T07:57:14.938Z,26.81
2019-06-26T07:59:47.426Z,26.86
2019-06-26T08:02:20.941Z,26.97
2019-06-26T08:04:54.381Z,26.96
2019-06-26T08:07:28.100Z,26.94
2019-06-26T08:10:01.822Z,27.00
2019-06-26T08:12:35.598Z,27.15
2019-06-26T08:15:08.478Z,27.29
2019-06-26T08:17:55.924Z,27.31
2019-06-26T08:20:32.824Z,27.44
2019-06-26T08:23:07.273Z,27.22
2019-06-26T08:25:47.684Z,27.35
2019-06-26T08:28:23.187Z,27.42
2019-06-26T08:30:56.587Z,27.37
2019-06-26T08:33:30.700Z,27.53
2019-06-26T08:36:04.034Z,27.54
2019-06-26T08:38:56.557Z,27.77
2019-06-26T08:41:29.779Z,27.71
2019-06-26T08:44:03.347Z,27.84
2019-06-26T08:46:37.170Z,27.99
2019-06-26T08:49:24.261Z,28.14
2019-06-26T08:51:55.105Z,28.39
2019-06-26T08:54:38.461Z,28.20
2019-06-26T08:57:13.145Z,28.05
2019-06-26T08:59:47.683Z,28.05
2019-06-26T09:02:31.255Z,28.22
2019-06-26T09:05:15.246Z,28.36
2019-06-26T09:07:58.266Z,28.45
2019-06-26T09:10:31.995Z,28.49
2019-06-26T09:13:05.286Z,28.39
2019-06-26T09:15:39.383Z,28.23
2019-06-26T09:18:12.571Z,28.30
2019-06-26T09:20:47.190Z,28.45
2019-06-26T09:23:20.609Z,28.64
2019-06-26T09:25:54.199Z,28.68
2019-06-26T09:28:44.088Z,28.86
2019-06-26T09:31:33.083Z,28.88
2019-06-26T09:34:07.413Z,28.74
2019-06-26T09:36:51.315Z,28.91
2019-06-26T09:39:24.813Z,28.89
2019-06-26T09:42:08.427Z,29.01
2019-06-26T09:44:51.777Z,29.09
2019-06-26T09:47:26.051Z,29.07
2019-06-26T09:49:59.902Z,29.29
2019-06-26T09:52:33.328Z,29.09
2019-06-26T09:55:08.748Z,29.16
2019-06-26T09:57:42.838Z,29.18
2019-06-26T10:00:16.795Z,29.04
2019-06-26T10:03:00.479Z,29.28
2019-06-26T10:05:33.467Z,29.01
2019-06-26T10:08:07.075Z,28.97
2019-06-26T10:10:41.670Z,29.12
2019-06-26T10:13:24.910Z,29.27
2019-06-26T10:16:02.189Z,29.40
2019-06-26T10:18:45.417Z,29.74
2019-06-26T10:21:18.678Z,29.60
2019-06-26T10:23:51.870Z,29.45
2019-06-26T10:26:25.878Z,29.40
2019-06-26T10:28:59.109Z,29.05
2019-06-26T10:31:32.419Z,28.96
2019-06-26T10:34:09.843Z,29.21
2019-06-26T10:36:51.031Z,29.42
2019-06-26T10:39:34.817Z,29.56
2019-06-26T10:42:18.339Z,29.64
2019-06-26T10:45:01.642Z,29.86
2019-06-26T10:47:39.550Z,29.75
2019-06-26T10:50:11.501Z,29.86
2019-06-26T10:52:45.228Z,30.12
2019-06-26T10:55:19.926Z,30.06
2019-06-26T10:58:03.157Z,29.63
2019-06-26T11:00:36.882Z,29.53
2019-06-26T11:03:10.846Z,29.55
2019-06-26T11:06:00.403Z,29.79
2019-06-26T11:08:34.749Z,29.51
2019-06-26T11:11:08.063Z,29.46
2019-06-26T11:13:51.292Z,29.53
2019-06-26T11:16:39.768Z,29.76
2019-06-26T11:19:13.538Z,29.59
2019-06-26T11:21:59.226Z,29.58
2019-06-26T11:24:33.252Z,29.26
2019-06-26T11:27:06.542Z,29.30
2019-06-26T11:29:40.112Z,29.31
2019-06-26T11:32:13.646Z,29.52
2019-06-26T11:34:47.330Z,29.73
2019-06-26T11:37:23.158Z,29.84
2019-06-26T11:39:55.802Z,29.86
2019-06-26T11:42:32.588Z,29.89
2019-06-26T11:45:05.082Z,29.93
2019-06-26T11:47:38.730Z,29.33
2019-06-26T11:50:12.676Z,29.05
2019-06-26T11:52:47.044Z,29.09
2019-06-26T11:55:20.862Z,29.06
2019-06-26T11:57:54.423Z,29.01
2019-06-26T12:00:28.712Z,29.00
2019-06-26T12:03:17.906Z,29.16
2019-06-26T12:05:51.599Z,29.21
2019-06-26T12:08:25.216Z,28.98
2019-06-26T12:10:59.058Z,29.04
2019-06-26T12:13:33.658Z,28.92
2019-06-26T12:16:07.243Z,29.01
2019-06-26T12:18:41.088Z,29.28
2019-06-26T12:21:14.291Z,29.40
2019-06-26T12:23:48.064Z,29.01
2019-06-26T12:26:22.344Z,28.64
2019-06-26T12:28:54.862Z,28.94
2019-06-26T12:31:30.695Z,28.85
2019-06-26T12:34:04.085Z,29.15
2019-06-26T12:36:36.372Z,29.05
2019-06-26T12:39:09.767Z,28.94
2019-06-26T12:41:43.386Z,28.89
2019-06-26T12:44:17.648Z,28.85
2019-06-26T12:47:03.585Z,29.21
2019-06-26T12:49:36.886Z,28.88
2019-06-26T12:52:11.204Z,28.89
2019-06-26T12:54:58.007Z,29.31
2019-06-26T12:57:31.664Z,29.25
2019-06-26T13:00:06.252Z,29.04
2019-06-26T13:02:52.359Z,29.58
2019-06-26T13:05:45.043Z,29.78
2019-06-26T13:08:31.103Z,29.58
2019-06-26T13:11:04.999Z,29.30
2019-06-26T13:14:01.962Z,29.40
2019-06-26T13:16:35.589Z,29.09
2019-06-26T13:19:09.858Z,29.08
2019-06-26T13:22:01.220Z,29.13
2019-06-26T13:24:34.667Z,28.66
2019-06-26T13:27:08.360Z,28.67
2019-06-26T13:29:44.254Z,28.78
2019-06-26T13:32:30.693Z,28.96
2019-06-26T13:35:13.866Z,28.85
2019-06-26T13:37:47.749Z,28.88
2019-06-26T13:40:21.365Z,28.80
2019-06-26T13:42:55.434Z,28.49
2019-06-26T13:45:29.897Z,28.54
2019-06-26T13:48:03.833Z,28.80
2019-06-26T13:50:50.594Z,28.94
2019-06-26T13:53:24.160Z,28.59
2019-06-26T13:55:58.166Z,28.35
2019-06-26T13:58:45.106Z,28.65
2019-06-26T14:01:18.695Z,28.33
2019-06-26T14:03:51.948Z,28.47
2019-06-26T14:06:25.803Z,28.49
2019-06-26T14:08:59.377Z,29.05
2019-06-26T14:11:32.624Z,29.12
2019-06-26T14:14:06.212Z,29.59
2019-06-26T14:16:43.584Z,29.40
2019-06-26T14:19:17.394Z,29.14
2019-06-26T14:22:03.483Z,29.15
2019-06-26T14:24:36.829Z,29.24
2019-06-26T14:27:10.410Z,29.43
2019-06-26T14:29:43.645Z,29.57
2019-06-26T14:32:35.488Z,29.73
2019-06-26T14:35:26.836Z,29.60
2019-06-26T14:38:00.777Z,29.55
2019-06-26T14:40:33.018Z,29.51
2019-06-26T14:43:25.113Z,29.46
2019-06-26T14:45:59.017Z,28.99
2019-06-26T14:48:32.333Z,29.11
2019-06-26T14:51:05.701Z,28.98
2019-06-26T14:53:39.657Z,28.68
2019-06-26T14:56:12.888Z,28.71
2019-06-26T14:58:46.517Z,28.86
2019-06-26T15:01:20.306Z,28.80
2019-06-26T15:03:54.442Z,28.67
2019-06-26T15:06:37.990Z,28.53
2019-06-26T15:09:11.390Z,28.48
2019-06-26T15:11:45.776Z,28.29
2019-06-26T15:14:31.808Z,28.02
2019-06-26T15:17:18.150Z,28.32
2019-06-26T15:20:01.542Z,28.39
2019-06-26T15:22:53.766Z,28.52
2019-06-26T15:25:27.009Z,28.28
2019-06-26T15:28:00.682Z,27.81
2019-06-26T15:30:37.054Z,27.84
2019-06-26T15:33:10.801Z,27.74
2019-06-26T15:35:44.061Z,27.56
2019-06-26T15:38:37.800Z,27.70
2019-06-26T15:41:11.015Z,27.41
2019-06-26T15:43:56.997Z,27.08
2019-06-26T15:46:30.342Z,26.21
2019-06-26T15:49:03.837Z,25.81
2019-06-26T15:51:41.248Z,25.98
2019-06-26T15:54:25.076Z,26.39
2019-06-26T15:57:08.819Z,26.46
2019-06-26T15:59:41.281Z,26.18
2019-06-26T16:02:16.795Z,25.86
2019-06-26T16:04:51.351Z,26.31
2019-06-26T16:07:24.537Z,26.27
2019-06-26T16:09:58.751Z,26.05
2019-06-26T16:12:44.954Z,25.98
2019-06-26T16:15:39.870Z,25.95
2019-06-26T16:18:21.487Z,25.77
2019-06-26T16:20:55.244Z,25.56
2019-06-26T16:23:27.483Z,25.49
2019-06-26T16:26:01.169Z,24.82
2019-06-26T16:28:34.766Z,25.01
2019-06-26T16:31:09.384Z,25.48
2019-06-26T16:33:54.808Z,25.95
2019-06-26T16:36:29.897Z,26.12
2019-06-26T16:39:02.841Z,26.02
2019-06-26T16:41:41.860Z,25.43
2019-06-26T16:44:15.525Z,24.93
2019-06-26T16:46:50.301Z,25.44
2019-06-26T16:49:28.027Z,25.50
2019-06-26T16:52:03.975Z,25.53
2019-06-26T16:54:43.974Z,24.69
2019-06-26T16:57:16.299Z,23.78
2019-06-26T16:59:49.557Z,23.87
2019-06-26T17:02:22.447Z,23.34
2019-06-26T17:05:06.039Z,23.60
2019-06-26T17:07:39.254Z,23.47
2019-06-26T17:10:12.856Z,23.56
2019-06-26T17:12:46.691Z,23.52
2019-06-26T17:15:19.719Z,23.54
2019-06-26T17:17:53.098Z,22.73
2019-06-26T17:20:38.597Z,22.89
2019-06-26T17:23:22.142Z,23.49
2019-06-26T17:26:06.069Z,24.25
2019-06-26T17:28:42.209Z,24.55
2019-06-26T17:31:16.103Z,25.13
2019-06-26T17:33:49.815Z,24.96
2019-06-26T17:36:22.679Z,25.11
2019-06-26T17:38:57.120Z,25.45
2019-06-26T17:41:47.092Z,25.57
2019-06-26T17:44:20.455Z,24.89
2019-06-26T17:46:54.231Z,25.04
2019-06-26T17:49:27.858Z,24.83
2019-06-26T17:52:01.727Z,25.01
2019-06-26T17:54:48.475Z,25.49
2019-06-26T17:57:32.737Z,25.20
2019-06-26T18:00:07.274Z,24.49
2019-06-26T18:02:50.906Z,23.73
2019-06-26T18:05:24.186Z,23.36
2019-06-26T18:07:57.858Z,23.00
2019-06-26T18:10:31.427Z,22.65
2019-06-26T18:13:05.956Z,22.38
2019-06-26T18:15:40.023Z,22.07
2019-06-26T18:18:16.277Z,21.77
2019-06-26T18:21:01.706Z,21.40
2019-06-26T18:23:38.479Z,21.17
2019-06-26T18:26:13.470Z,20.80
2019-06-26T18:28:45.990Z,20.44
2019-06-26T18:31:19.594Z,20.15
2019-06-26T18:33:52.992Z,19.94
2019-06-26T18:36:26.567Z,19.85
2019-06-26T18:38:59.992Z,19.97
2019-06-26T18:41:32.953Z,19.99
2019-06-26T18:44:16.202Z,20.11
2019-06-26T18:46:49.434Z,19.87
2019-06-26T18:49:22.671Z,19.70
2019-06-26T18:51:56.173Z,19.63
2019-06-26T18:54:29.473Z,19.78
2019-06-26T18:57:12.942Z,19.97
2019-06-26T18:59:56.648Z,19.94
2019-06-26T19:02:40.975Z,19.76
2019-06-26T19:05:14.721Z,19.67
2019-06-26T19:07:48.323Z,19.79
2019-06-26T19:10:21.551Z,19.92
2019-06-26T19:13:46.817Z,19.84
2019-06-26T19:16:36.151Z,19.63
2019-06-26T19:19:12.123Z,19.42
2019-06-26T19:21:44.208Z,19.43
2019-06-26T19:24:17.606Z,19.47
2019-06-26T19:26:51.304Z,19.21
2019-06-26T19:29:25.224Z,18.96
2019-06-26T19:31:58.395Z,18.90
2019-06-26T19:34:32.390Z,18.98
2019-06-26T19:37:05.609Z,18.94
2019-06-26T19:39:39.506Z,18.81
2019-06-26T19:42:13.066Z,18.74
2019-06-26T19:44:46.540Z,18.64
2019-06-26T19:47:20.476Z,18.60
2019-06-26T19:49:54.445Z,18.63
2019-06-26T19:52:41.268Z,18.86
2019-06-26T19:55:15.160Z,18.73
2019-06-26T19:57:49.250Z,18.61
2019-06-26T20:00:22.355Z,18.58
2019-06-26T20:02:55.563Z,18.62
2019-06-26T20:05:42.115Z,18.58
2019-06-26T20:08:15.359Z,18.51
2019-06-26T20:10:49.292Z,18.56
2019-06-26T20:13:23.530Z,18.67
2019-06-26T20:16:16.532Z,18.72
2019-06-26T20:19:33.589Z,18.72
2019-06-26T20:22:06.851Z,18.47
2019-06-26T20:24:44.634Z,18.54
2019-06-26T20:27:15.309Z,18.55
2019-06-26T20:29:48.983Z,18.45
2019-06-26T20:32:22.537Z,18.39
2019-06-26T20:35:09.915Z,18.58
2019-06-26T20:38:04.236Z,18.49
2019-06-26T20:40:38.699Z,18.15
2019-06-26T20:43:12.293Z,18.47
2019-06-26T20:45:45.870Z,18.55
2019-06-26T20:48:20.461Z,18.61
2019-06-26T20:50:53.868Z,18.53
2019-06-26T20:53:28.393Z,18.56
2019-06-26T20:56:05.399Z,18.60
2019-06-26T20:58:55.521Z,18.48
2019-06-26T21:01:28.744Z,18.23
2019-06-26T21:04:02.541Z,17.93
2019-06-26T21:06:34.799Z,17.86
2019-06-26T21:09:09.016Z,17.91
2019-06-26T21:11:42.688Z,17.80
2019-06-26T21:14:16.981Z,17.90
2019-06-26T21:16:51.169Z,17.90
2019-06-26T21:20:08.972Z,18.08
2019-06-26T21:22:42.675Z,17.91
2019-06-26T21:25:19.380Z,17.81
2019-06-26T21:27:52.307Z,17.86
2019-06-26T21:30:26.020Z,17.92
2019-06-26T21:32:59.518Z,17.93
2019-06-26T21:35:32.947Z,17.76
2019-06-26T21:38:06.183Z,17.63
2019-06-26T22:26:14.287Z,17.17
2019-06-26T22:28:48.039Z,17.17
2019-06-26T22:31:45.935Z,17.18
2019-06-26T22:34:31.088Z,17.18
2019-06-26T22:37:04.471Z,16.97
2019-06-26T22:39:38.439Z,16.97
2019-06-26T22:42:17.817Z,17.02
2019-06-26T22:44:51.610Z,16.89
2019-06-26T22:47:25.496Z,16.87
2019-06-26T22:50:00.783Z,16.95
2019-06-26T22:52:34.500Z,16.86
2019-06-26T22:55:08.400Z,16.89
2019-06-26T23:00:59.704Z,16.92
2019-06-26T23:03:33.463Z,16.86
2019-06-26T23:06:20.681Z,17.12
2019-06-26T23:09:13.300Z,17.16
2019-06-26T23:11:47.657Z,17.08
2019-06-26T23:14:20.921Z,17.00
2019-06-26T23:16:54.126Z,16.98
2019-06-26T23:19:27.821Z,16.88
2019-06-26T23:22:03.568Z,16.96
2019-06-26T23:24:41.533Z,16.78
2019-06-26T23:27:30.325Z,16.73
2019-06-26T23:30:04.627Z,16.80
2019-06-26T23:32:50.449Z,17.01
2019-06-26T23:35:36.556Z,17.09
2019-06-26T23:38:11.638Z,16.96
2019-06-26T23:40:44.937Z,16.81
2019-06-26T23:43:18.330Z,16.71
2019-06-26T23:45:51.804Z,16.70
2019-06-26T23:48:26.382Z,16.77
2019-06-26T23:51:11.550Z,16.93
2019-06-26T23:53:44.955Z,16.83
2019-06-26T23:56:21.400Z,16.70
2019-06-26T23:58:54.460Z,16.61
